sensor_id;sensor_type;location;lat;lon;timestamp;P1;durP1;ratioP1;P2;durP2;ratioP2
35745;SDS011;21870;42.812;74.628;2023-02-07T00:01:06;172.65;;;99.63;;
35745;SDS011;21870;42.812;74.628;2023-02-07T00:03:36;163.60;;;92.80;;
35745;SDS011;21870;42.812;74.628;2023-02-07T00:06:04;170.90;;;95.25;;
35745;SDS011;21870;42.812;74.628;2023-02-07T00:08:34;171.15;;;96.95;;
35745;SDS011;21870;42.812;74.628;2023-02-07T00:11:04;165.75;;;91.07;;
35745;SDS011;21870;42.812;74.628;2023-02-07T00:13:32;163.00;;;91.07;;
35745;SDS011;21870;42.812;74.628;2023-02-07T00:15:58;172.65;;;93.97;;
35745;SDS011;21870;42.812;74.628;2023-02-07T00:18:24;170.27;;;93.20;;
35745;SDS011;21870;42.812;74.628;2023-02-07T00:20:57;164.38;;;87.63;;
35745;SDS011;21870;42.812;74.628;2023-02-07T00:23:24;157.48;;;88.63;;
35745;SDS011;21870;42.812;74.628;2023-02-07T00:25:50;154.18;;;88.25;;
35745;SDS011;21870;42.812;74.628;2023-02-07T00:28:16;138.57;;;82.40;;
35745;SDS011;21870;42.812;74.628;2023-02-07T00:30:43;147.80;;;83.68;;
35745;SDS011;21870;42.812;74.628;2023-02-07T00:33:09;135.88;;;78.65;;
35745;SDS011;21870;42.812;74.628;2023-02-07T00:35:35;124.50;;;75.18;;
35745;SDS011;21870;42.812;74.628;2023-02-07T00:38:01;143.48;;;83.32;;
35745;SDS011;21870;42.812;74.628;2023-02-07T00:40:27;140.95;;;81.65;;
35745;SDS011;21870;42.812;74.628;2023-02-07T00:42:53;141.70;;;83.95;;
35745;SDS011;21870;42.812;74.628;2023-02-07T00:45:19;143.48;;;82.70;;
35745;SDS011;21870;42.812;74.628;2023-02-07T00:47:45;152.07;;;83.40;;
35745;SDS011;21870;42.812;74.628;2023-02-07T00:50:11;157.00;;;86.93;;
35745;SDS011;21870;42.812;74.628;2023-02-07T00:52:37;138.52;;;81.63;;
35745;SDS011;21870;42.812;74.628;2023-02-07T00:55:03;143.77;;;84.20;;
35745;SDS011;21870;42.812;74.628;2023-02-07T00:57:30;139.60;;;84.53;;
35745;SDS011;21870;42.812;74.628;2023-02-07T00:59:56;130.00;;;79.57;;
35745;SDS011;21870;42.812;74.628;2023-02-07T01:02:25;147.88;;;85.72;;
35745;SDS011;21870;42.812;74.628;2023-02-07T01:04:51;135.88;;;77.75;;
35745;SDS011;21870;42.812;74.628;2023-02-07T01:07:17;145.57;;;80.78;;
35745;SDS011;21870;42.812;74.628;2023-02-07T01:09:43;147.00;;;86.90;;
35745;SDS011;21870;42.812;74.628;2023-02-07T01:12:09;137.20;;;82.40;;
35745;SDS011;21870;42.812;74.628;2023-02-07T01:14:35;122.13;;;76.22;;
35745;SDS011;21870;42.812;74.628;2023-02-07T01:17:01;122.20;;;77.55;;
35745;SDS011;21870;42.812;74.628;2023-02-07T01:19:27;122.60;;;73.63;;
35745;SDS011;21870;42.812;74.628;2023-02-07T01:21:53;333.45;;;86.95;;
35745;SDS011;21870;42.812;74.628;2023-02-07T01:24:22;125.43;;;71.85;;
35745;SDS011;21870;42.812;74.628;2023-02-07T01:26:48;143.13;;;79.50;;
35745;SDS011;21870;42.812;74.628;2023-02-07T01:29:14;137.27;;;79.53;;
35745;SDS011;21870;42.812;74.628;2023-02-07T01:31:41;129.00;;;76.47;;
35745;SDS011;21870;42.812;74.628;2023-02-07T01:34:09;133.45;;;79.05;;
35745;SDS011;21870;42.812;74.628;2023-02-07T01:36:37;136.05;;;83.00;;
35745;SDS011;21870;42.812;74.628;2023-02-07T01:39:03;142.50;;;81.93;;
35745;SDS011;21870;42.812;74.628;2023-02-07T01:41:29;156.63;;;86.22;;
35745;SDS011;21870;42.812;74.628;2023-02-07T01:46:48;155.90;;;83.47;;
35745;SDS011;21870;42.812;74.628;2023-02-07T01:49:16;158.15;;;86.88;;
35745;SDS011;21870;42.812;74.628;2023-02-07T01:51:50;165.23;;;86.40;;
35745;SDS011;21870;42.812;74.628;2023-02-07T01:54:19;176.05;;;90.40;;
35745;SDS011;21870;42.812;74.628;2023-02-07T01:56:55;177.63;;;89.72;;
35745;SDS011;21870;42.812;74.628;2023-02-07T01:59:23;162.05;;;87.43;;
35745;SDS011;21870;42.812;74.628;2023-02-07T02:01:51;174.95;;;93.15;;
35745;SDS011;21870;42.812;74.628;2023-02-07T02:04:17;188.23;;;96.40;;
35745;SDS011;21870;42.812;74.628;2023-02-07T02:06:45;173.48;;;91.53;;
35745;SDS011;21870;42.812;74.628;2023-02-07T02:09:13;195.43;;;98.80;;
35745;SDS011;21870;42.812;74.628;2023-02-07T02:24:19;178.95;;;90.97;;
35745;SDS011;21870;42.812;74.628;2023-02-07T02:27:15;227.27;;;103.57;;
35745;SDS011;21870;42.812;74.628;2023-02-07T02:36:09;230.38;;;104.13;;
35745;SDS011;21870;42.812;74.628;2023-02-07T02:41:50;229.50;;;101.45;;
35745;SDS011;21870;42.812;74.628;2023-02-07T02:44:32;241.80;;;106.70;;
35745;SDS011;21870;42.812;74.628;2023-02-07T02:47:04;215.95;;;102.38;;
35745;SDS011;21870;42.812;74.628;2023-02-07T02:49:30;223.77;;;104.03;;
35745;SDS011;21870;42.812;74.628;2023-02-07T02:52:00;220.80;;;104.72;;
35745;SDS011;21870;42.812;74.628;2023-02-07T02:54:34;224.25;;;106.78;;
35745;SDS011;21870;42.812;74.628;2023-02-07T03:10:37;206.43;;;100.40;;
35745;SDS011;21870;42.812;74.628;2023-02-07T03:13:19;207.05;;;106.70;;
35745;SDS011;21870;42.812;74.628;2023-02-07T03:16:21;205.98;;;102.75;;
35745;SDS011;21870;42.812;74.628;2023-02-07T03:21:46;194.32;;;95.75;;
35745;SDS011;21870;42.812;74.628;2023-02-07T03:24:18;194.82;;;98.53;;
35745;SDS011;21870;42.812;74.628;2023-02-07T03:26:47;201.30;;;94.63;;
35745;SDS011;21870;42.812;74.628;2023-02-07T03:29:19;195.95;;;97.13;;
35745;SDS011;21870;42.812;74.628;2023-02-07T03:31:47;206.30;;;94.63;;
35745;SDS011;21870;42.812;74.628;2023-02-07T03:34:17;197.95;;;96.00;;
35745;SDS011;21870;42.812;74.628;2023-02-07T03:39:39;192.20;;;94.80;;
35745;SDS011;21870;42.812;74.628;2023-02-07T03:42:14;200.93;;;97.90;;
35745;SDS011;21870;42.812;74.628;2023-02-07T03:44:46;196.27;;;98.07;;
35745;SDS011;21870;42.812;74.628;2023-02-07T03:47:18;193.07;;;98.47;;
35745;SDS011;21870;42.812;74.628;2023-02-07T03:49:46;196.85;;;98.57;;
35745;SDS011;21870;42.812;74.628;2023-02-07T03:52:12;192.23;;;98.95;;
35745;SDS011;21870;42.812;74.628;2023-02-07T03:54:38;206.23;;;103.15;;
35745;SDS011;21870;42.812;74.628;2023-02-07T03:57:04;219.65;;;106.07;;
35745;SDS011;21870;42.812;74.628;2023-02-07T03:59:31;223.60;;;105.63;;
35745;SDS011;21870;42.812;74.628;2023-02-07T04:01:57;216.68;;;110.75;;
35745;SDS011;21870;42.812;74.628;2023-02-07T04:04:23;209.27;;;106.75;;
35745;SDS011;21870;42.812;74.628;2023-02-07T04:06:49;189.10;;;102.03;;
35745;SDS011;21870;42.812;74.628;2023-02-07T04:09:15;198.68;;;104.03;;
35745;SDS011;21870;42.812;74.628;2023-02-07T04:11:47;189.18;;;101.53;;
35745;SDS011;21870;42.812;74.628;2023-02-07T04:14:13;218.55;;;110.32;;
35745;SDS011;21870;42.812;74.628;2023-02-07T04:16:40;209.82;;;109.13;;
35745;SDS011;21870;42.812;74.628;2023-02-07T04:19:06;208.65;;;112.85;;
35745;SDS011;21870;42.812;74.628;2023-02-07T04:21:32;200.38;;;109.00;;
35745;SDS011;21870;42.812;74.628;2023-02-07T04:23:58;216.63;;;115.60;;
35745;SDS011;21870;42.812;74.628;2023-02-07T04:26:24;209.18;;;112.00;;
35745;SDS011;21870;42.812;74.628;2023-02-07T04:28:50;212.73;;;113.63;;
35745;SDS011;21870;42.812;74.628;2023-02-07T04:31:16;204.95;;;112.03;;
35745;SDS011;21870;42.812;74.628;2023-02-07T04:33:42;200.10;;;110.20;;
35745;SDS011;21870;42.812;74.628;2023-02-07T04:36:08;198.32;;;106.70;;
35745;SDS011;21870;42.812;74.628;2023-02-07T04:38:34;195.68;;;105.65;;
35745;SDS011;21870;42.812;74.628;2023-02-07T04:41:02;182.38;;;101.80;;
35745;SDS011;21870;42.812;74.628;2023-02-07T04:43:30;185.25;;;102.55;;
35745;SDS011;21870;42.812;74.628;2023-02-07T04:45:57;190.93;;;107.97;;
35745;SDS011;21870;42.812;74.628;2023-02-07T04:48:26;180.43;;;104.43;;
35745;SDS011;21870;42.812;74.628;2023-02-07T04:50:52;173.75;;;101.60;;
35745;SDS011;21870;42.812;74.628;2023-02-07T04:53:18;175.20;;;102.97;;
35745;SDS011;21870;42.812;74.628;2023-02-07T04:55:51;177.73;;;103.20;;
35745;SDS011;21870;42.812;74.628;2023-02-07T04:58:18;166.60;;;98.35;;
35745;SDS011;21870;42.812;74.628;2023-02-07T05:00:45;161.60;;;95.82;;
35745;SDS011;21870;42.812;74.628;2023-02-07T05:03:12;173.60;;;99.95;;
35745;SDS011;21870;42.812;74.628;2023-02-07T05:05:44;170.52;;;100.15;;
35745;SDS011;21870;42.812;74.628;2023-02-07T05:08:11;167.18;;;102.53;;
35745;SDS011;21870;42.812;74.628;2023-02-07T05:10:38;159.13;;;98.28;;
35745;SDS011;21870;42.812;74.628;2023-02-07T05:13:04;167.48;;;103.55;;
35745;SDS011;21870;42.812;74.628;2023-02-07T05:15:31;170.52;;;102.15;;
35745;SDS011;21870;42.812;74.628;2023-02-07T05:17:57;171.88;;;100.57;;
35745;SDS011;21870;42.812;74.628;2023-02-07T05:20:26;165.48;;;103.10;;
35745;SDS011;21870;42.812;74.628;2023-02-07T05:22:52;170.65;;;105.10;;
35745;SDS011;21870;42.812;74.628;2023-02-07T05:25:18;161.43;;;101.15;;
35745;SDS011;21870;42.812;74.628;2023-02-07T05:27:45;168.68;;;101.82;;
35745;SDS011;21870;42.812;74.628;2023-02-07T05:30:11;146.90;;;93.55;;
35745;SDS011;21870;42.812;74.628;2023-02-07T05:32:37;162.60;;;101.25;;
35745;SDS011;21870;42.812;74.628;2023-02-07T05:35:22;116.85;;;77.53;;
35745;SDS011;21870;42.812;74.628;2023-02-07T05:37:50;124.38;;;78.90;;
35745;SDS011;21870;42.812;74.628;2023-02-07T05:40:16;124.57;;;79.80;;
35745;SDS011;21870;42.812;74.628;2023-02-07T05:42:42;104.13;;;67.45;;
35745;SDS011;21870;42.812;74.628;2023-02-07T05:45:08;96.63;;;64.90;;
35745;SDS011;21870;42.812;74.628;2023-02-07T05:47:35;101.15;;;70.00;;
35745;SDS011;21870;42.812;74.628;2023-02-07T05:50:01;84.28;;;60.10;;
35745;SDS011;21870;42.812;74.628;2023-02-07T05:52:27;86.70;;;60.47;;
35745;SDS011;21870;42.812;74.628;2023-02-07T05:54:53;75.80;;;52.80;;
35745;SDS011;21870;42.812;74.628;2023-02-07T05:57:19;83.30;;;55.40;;
35745;SDS011;21870;42.812;74.628;2023-02-07T05:59:45;95.47;;;64.55;;
35745;SDS011;21870;42.812;74.628;2023-02-07T06:02:11;111.38;;;73.60;;
35745;SDS011;21870;42.812;74.628;2023-02-07T06:04:37;92.85;;;65.28;;
35745;SDS011;21870;42.812;74.628;2023-02-07T06:07:03;96.13;;;60.35;;
35745;SDS011;21870;42.812;74.628;2023-02-07T06:09:29;88.18;;;59.00;;
35745;SDS011;21870;42.812;74.628;2023-02-07T06:11:56;57.70;;;42.83;;
35745;SDS011;21870;42.812;74.628;2023-02-07T06:14:22;62.35;;;43.15;;
35745;SDS011;21870;42.812;74.628;2023-02-07T06:16:48;45.65;;;32.65;;
35745;SDS011;21870;42.812;74.628;2023-02-07T06:19:17;41.40;;;28.08;;
35745;SDS011;21870;42.812;74.628;2023-02-07T06:21:43;39.30;;;26.70;;
35745;SDS011;21870;42.812;74.628;2023-02-07T06:24:09;36.88;;;23.77;;
35745;SDS011;21870;42.812;74.628;2023-02-07T06:26:35;28.08;;;20.08;;
35745;SDS011;21870;42.812;74.628;2023-02-07T06:29:02;27.02;;;17.42;;
35745;SDS011;21870;42.812;74.628;2023-02-07T06:31:28;23.73;;;17.00;;
35745;SDS011;21870;42.812;74.628;2023-02-07T06:33:54;27.48;;;17.60;;
35745;SDS011;21870;42.812;74.628;2023-02-07T06:36:20;23.20;;;13.23;;
35745;SDS011;21870;42.812;74.628;2023-02-07T06:38:46;21.10;;;11.38;;
35745;SDS011;21870;42.812;74.628;2023-02-07T06:41:13;16.10;;;9.85;;
35745;SDS011;21870;42.812;74.628;2023-02-07T06:43:39;17.42;;;10.35;;
35745;SDS011;21870;42.812;74.628;2023-02-07T06:46:06;15.70;;;10.73;;
35745;SDS011;21870;42.812;74.628;2023-02-07T06:48:32;21.25;;;12.23;;
35745;SDS011;21870;42.812;74.628;2023-02-07T06:50:58;21.05;;;12.48;;
35745;SDS011;21870;42.812;74.628;2023-02-07T06:53:24;16.42;;;11.48;;
35745;SDS011;21870;42.812;74.628;2023-02-07T06:55:50;22.58;;;11.68;;
35745;SDS011;21870;42.812;74.628;2023-02-07T06:58:16;30.38;;;14.73;;
35745;SDS011;21870;42.812;74.628;2023-02-07T07:00:42;24.33;;;13.60;;
35745;SDS011;21870;42.812;74.628;2023-02-07T07:03:12;25.33;;;13.60;;
35745;SDS011;21870;42.812;74.628;2023-02-07T07:05:39;22.85;;;14.48;;
35745;SDS011;21870;42.812;74.628;2023-02-07T07:08:06;21.75;;;13.38;;
35745;SDS011;21870;42.812;74.628;2023-02-07T07:10:32;28.90;;;16.38;;
35745;SDS011;21870;42.812;74.628;2023-02-07T07:12:59;28.70;;;14.32;;
35745;SDS011;21870;42.812;74.628;2023-02-07T07:15:25;21.85;;;14.60;;
35745;SDS011;21870;42.812;74.628;2023-02-07T07:17:51;33.30;;;21.13;;
35745;SDS011;21870;42.812;74.628;2023-02-07T07:20:18;33.08;;;20.45;;
35745;SDS011;21870;42.812;74.628;2023-02-07T07:22:44;36.47;;;23.77;;
35745;SDS011;21870;42.812;74.628;2023-02-07T07:25:10;25.80;;;16.73;;
35745;SDS011;21870;42.812;74.628;2023-02-07T07:27:36;29.55;;;17.13;;
35745;SDS011;21870;42.812;74.628;2023-02-07T07:30:03;22.33;;;17.10;;
35745;SDS011;21870;42.812;74.628;2023-02-07T07:32:29;37.15;;;24.25;;
35745;SDS011;21870;42.812;74.628;2023-02-07T07:34:56;32.03;;;20.25;;
35745;SDS011;21870;42.812;74.628;2023-02-07T07:37:22;44.25;;;24.17;;
35745;SDS011;21870;42.812;74.628;2023-02-07T07:39:48;24.40;;;17.20;;
35745;SDS011;21870;42.812;74.628;2023-02-07T07:42:14;19.90;;;13.05;;
35745;SDS011;21870;42.812;74.628;2023-02-07T07:44:40;19.63;;;13.82;;
35745;SDS011;21870;42.812;74.628;2023-02-07T07:47:06;23.00;;;15.45;;
35745;SDS011;21870;42.812;74.628;2023-02-07T07:49:32;33.00;;;23.88;;
35745;SDS011;21870;42.812;74.628;2023-02-07T07:51:59;35.88;;;23.00;;
35745;SDS011;21870;42.812;74.628;2023-02-07T07:54:28;34.30;;;22.60;;
35745;SDS011;21870;42.812;74.628;2023-02-07T07:56:57;31.88;;;22.15;;
35745;SDS011;21870;42.812;74.628;2023-02-07T07:59:23;28.45;;;19.08;;
35745;SDS011;21870;42.812;74.628;2023-02-07T08:01:49;17.13;;;13.55;;
35745;SDS011;21870;42.812;74.628;2023-02-07T08:04:16;29.77;;;21.05;;
35745;SDS011;21870;42.812;74.628;2023-02-07T08:06:44;24.23;;;17.85;;
35745;SDS011;21870;42.812;74.628;2023-02-07T08:09:10;32.35;;;21.88;;
35745;SDS011;21870;42.812;74.628;2023-02-07T08:11:36;34.88;;;20.30;;
35745;SDS011;21870;42.812;74.628;2023-02-07T08:14:02;21.27;;;15.25;;
35745;SDS011;21870;42.812;74.628;2023-02-07T08:16:28;24.83;;;16.77;;
35745;SDS011;21870;42.812;74.628;2023-02-07T08:18:55;30.15;;;17.85;;
35745;SDS011;21870;42.812;74.628;2023-02-07T08:21:23;28.73;;;17.38;;
35745;SDS011;21870;42.812;74.628;2023-02-07T08:23:51;26.15;;;15.43;;
35745;SDS011;21870;42.812;74.628;2023-02-07T08:26:18;23.20;;;14.98;;
35745;SDS011;21870;42.812;74.628;2023-02-07T08:28:44;18.75;;;12.75;;
35745;SDS011;21870;42.812;74.628;2023-02-07T08:31:10;26.58;;;14.43;;
35745;SDS011;21870;42.812;74.628;2023-02-07T08:33:37;26.13;;;17.02;;
35745;SDS011;21870;42.812;74.628;2023-02-07T08:36:03;29.30;;;16.50;;
35745;SDS011;21870;42.812;74.628;2023-02-07T08:38:33;24.55;;;16.77;;
35745;SDS011;21870;42.812;74.628;2023-02-07T08:40:59;26.58;;;16.92;;
35745;SDS011;21870;42.812;74.628;2023-02-07T08:43:25;23.55;;;16.63;;
35745;SDS011;21870;42.812;74.628;2023-02-07T08:45:51;20.60;;;15.63;;
35745;SDS011;21870;42.812;74.628;2023-02-07T08:48:18;22.80;;;17.15;;
35745;SDS011;21870;42.812;74.628;2023-02-07T08:50:44;20.10;;;14.13;;
35745;SDS011;21870;42.812;74.628;2023-02-07T08:53:10;22.85;;;15.90;;
35745;SDS011;21870;42.812;74.628;2023-02-07T08:55:39;28.98;;;16.98;;
35745;SDS011;21870;42.812;74.628;2023-02-07T08:58:06;19.92;;;14.88;;
35745;SDS011;21870;42.812;74.628;2023-02-07T09:00:32;18.67;;;15.70;;
35745;SDS011;21870;42.812;74.628;2023-02-07T09:03:01;25.27;;;15.65;;
35745;SDS011;21870;42.812;74.628;2023-02-07T09:05:28;22.85;;;15.95;;
35745;SDS011;21870;42.812;74.628;2023-02-07T09:07:58;27.65;;;15.48;;
35745;SDS011;21870;42.812;74.628;2023-02-07T09:10:25;23.02;;;15.27;;
35745;SDS011;21870;42.812;74.628;2023-02-07T09:12:51;22.73;;;15.23;;
35745;SDS011;21870;42.812;74.628;2023-02-07T09:15:17;21.92;;;15.63;;
35745;SDS011;21870;42.812;74.628;2023-02-07T09:17:43;26.42;;;16.95;;
35745;SDS011;21870;42.812;74.628;2023-02-07T09:20:10;20.95;;;14.30;;
35745;SDS011;21870;42.812;74.628;2023-02-07T09:22:36;19.20;;;13.65;;
35745;SDS011;21870;42.812;74.628;2023-02-07T09:25:23;24.33;;;15.35;;
35745;SDS011;21870;42.812;74.628;2023-02-07T09:27:49;16.73;;;13.40;;
35745;SDS011;21870;42.812;74.628;2023-02-07T09:30:19;17.67;;;12.45;;
35745;SDS011;21870;42.812;74.628;2023-02-07T09:32:46;12.13;;;9.07;;
35745;SDS011;21870;42.812;74.628;2023-02-07T09:35:12;15.52;;;9.43;;
35745;SDS011;21870;42.812;74.628;2023-02-07T09:37:38;11.88;;;8.73;;
35745;SDS011;21870;42.812;74.628;2023-02-07T09:40:04;12.63;;;9.00;;
35745;SDS011;21870;42.812;74.628;2023-02-07T09:42:42;12.02;;;8.10;;
35745;SDS011;21870;42.812;74.628;2023-02-07T09:45:24;13.95;;;8.40;;
35745;SDS011;21870;42.812;74.628;2023-02-07T09:47:58;16.13;;;8.13;;
35745;SDS011;21870;42.812;74.628;2023-02-07T09:50:33;13.02;;;7.45;;
35745;SDS011;21870;42.812;74.628;2023-02-07T09:53:05;12.55;;;7.28;;
35745;SDS011;21870;42.812;74.628;2023-02-07T09:56:08;9.30;;;6.70;;
35745;SDS011;21870;42.812;74.628;2023-02-07T09:58:51;10.52;;;7.00;;
35745;SDS011;21870;42.812;74.628;2023-02-07T10:01:42;14.80;;;7.15;;
35745;SDS011;21870;42.812;74.628;2023-02-07T10:06:47;11.70;;;7.05;;
35745;SDS011;21870;42.812;74.628;2023-02-07T10:09:17;10.00;;;7.13;;
35745;SDS011;21870;42.812;74.628;2023-02-07T10:28:48;10.20;;;5.90;;
35745;SDS011;21870;42.812;74.628;2023-02-07T10:31:43;20.75;;;6.72;;
35745;SDS011;21870;42.812;74.628;2023-02-07T10:34:14;14.70;;;6.35;;
35745;SDS011;21870;42.812;74.628;2023-02-07T10:36:49;15.85;;;6.90;;
35745;SDS011;21870;42.812;74.628;2023-02-07T10:39:21;17.98;;;6.80;;
35745;SDS011;21870;42.812;74.628;2023-02-07T10:42:00;10.70;;;7.10;;
35745;SDS011;21870;42.812;74.628;2023-02-07T10:44:27;19.23;;;9.73;;
35745;SDS011;21870;42.812;74.628;2023-02-07T10:46:58;14.27;;;7.53;;
35745;SDS011;21870;42.812;74.628;2023-02-07T10:49:30;12.82;;;7.80;;
35745;SDS011;21870;42.812;74.628;2023-02-07T10:55:02;15.23;;;8.57;;
35745;SDS011;21870;42.812;74.628;2023-02-07T10:57:30;9.50;;;7.78;;
35745;SDS011;21870;42.812;74.628;2023-02-07T11:02:34;15.23;;;9.50;;
35745;SDS011;21870;42.812;74.628;2023-02-07T11:08:01;9.63;;;7.47;;
35745;SDS011;21870;42.812;74.628;2023-02-07T11:10:41;15.65;;;7.70;;
35745;SDS011;21870;42.812;74.628;2023-02-07T11:13:12;13.57;;;7.90;;
35745;SDS011;21870;42.812;74.628;2023-02-07T11:15:51;17.25;;;9.35;;
35745;SDS011;21870;42.812;74.628;2023-02-07T11:18:25;16.00;;;9.57;;
35745;SDS011;21870;42.812;74.628;2023-02-07T11:20:53;14.65;;;8.95;;
35745;SDS011;21870;42.812;74.628;2023-02-07T11:23:20;14.20;;;8.50;;
35745;SDS011;21870;42.812;74.628;2023-02-07T11:25:48;16.15;;;9.32;;
35745;SDS011;21870;42.812;74.628;2023-02-07T11:28:24;9.65;;;7.80;;
35745;SDS011;21870;42.812;74.628;2023-02-07T11:30:58;13.30;;;7.15;;
35745;SDS011;21870;42.812;74.628;2023-02-07T11:33:30;10.50;;;6.30;;
35745;SDS011;21870;42.812;74.628;2023-02-07T11:38:46;13.55;;;8.35;;
35745;SDS011;21870;42.812;74.628;2023-02-07T11:41:19;16.00;;;10.20;;
35745;SDS011;21870;42.812;74.628;2023-02-07T11:44:30;14.55;;;9.70;;
35745;SDS011;21870;42.812;74.628;2023-02-07T11:46:42;10.23;;;8.07;;
35745;SDS011;21870;42.812;74.628;2023-02-07T11:51:58;12.98;;;8.05;;
35745;SDS011;21870;42.812;74.628;2023-02-07T11:54:26;8.77;;;7.75;;
35745;SDS011;21870;42.812;74.628;2023-02-07T11:57:01;13.02;;;9.13;;
35745;SDS011;21870;42.812;74.628;2023-02-07T12:02:35;15.20;;;10.13;;
35745;SDS011;21870;42.812;74.628;2023-02-07T12:05:16;16.02;;;10.85;;
35745;SDS011;21870;42.812;74.628;2023-02-07T12:07:50;17.85;;;12.20;;
35745;SDS011;21870;42.812;74.628;2023-02-07T12:10:20;21.25;;;12.15;;
35745;SDS011;21870;42.812;74.628;2023-02-07T12:13:06;28.60;;;17.58;;
35745;SDS011;21870;42.812;74.628;2023-02-07T12:15:40;25.83;;;16.10;;
35745;SDS011;21870;42.812;74.628;2023-02-07T12:18:25;22.10;;;17.27;;
35745;SDS011;21870;42.812;74.628;2023-02-07T12:34:54;28.60;;;19.25;;
35745;SDS011;21870;42.812;74.628;2023-02-07T12:37:46;46.17;;;30.90;;
35745;SDS011;21870;42.812;74.628;2023-02-07T12:40:23;27.08;;;18.90;;
35745;SDS011;21870;42.812;74.628;2023-02-07T12:57:09;16.25;;;11.77;;
35745;SDS011;21870;42.812;74.628;2023-02-07T13:10:50;11.75;;;6.85;;
35745;SDS011;21870;42.812;74.628;2023-02-07T13:21:58;9.07;;;6.53;;
35745;SDS011;21870;42.812;74.628;2023-02-07T13:24:09;8.45;;;6.32;;
35745;SDS011;21870;42.812;74.628;2023-02-07T13:26:47;7.40;;;6.40;;
35745;SDS011;21870;42.812;74.628;2023-02-07T13:29:17;6.75;;;6.10;;
35745;SDS011;21870;42.812;74.628;2023-02-07T13:31:56;12.82;;;7.88;;
35745;SDS011;21870;42.812;74.628;2023-02-07T13:34:36;10.60;;;6.45;;
35745;SDS011;21870;42.812;74.628;2023-02-07T13:37:33;5.95;;;5.40;;
35745;SDS011;21870;42.812;74.628;2023-02-07T13:40:27;7.22;;;5.82;;
35745;SDS011;21870;42.812;74.628;2023-02-07T13:43:10;11.60;;;7.43;;
35745;SDS011;21870;42.812;74.628;2023-02-07T13:56:17;10.45;;;6.57;;
35745;SDS011;21870;42.812;74.628;2023-02-07T14:02:25;9.73;;;7.45;;
35745;SDS011;21870;42.812;74.628;2023-02-07T14:04:52;10.65;;;9.65;;
35745;SDS011;21870;42.812;74.628;2023-02-07T14:07:24;15.25;;;8.57;;
35745;SDS011;21870;42.812;74.628;2023-02-07T14:09:56;19.90;;;9.32;;
35745;SDS011;21870;42.812;74.628;2023-02-07T14:12:35;19.60;;;9.60;;
35745;SDS011;21870;42.812;74.628;2023-02-07T14:15:51;16.85;;;10.95;;
35745;SDS011;21870;42.812;74.628;2023-02-07T14:21:04;13.75;;;10.13;;
35745;SDS011;21870;42.812;74.628;2023-02-07T14:32:00;11.02;;;7.80;;
35745;SDS011;21870;42.812;74.628;2023-02-07T14:35:27;10.10;;;7.22;;
35745;SDS011;21870;42.812;74.628;2023-02-07T14:37:52;12.13;;;6.78;;
35745;SDS011;21870;42.812;74.628;2023-02-07T14:40:35;13.30;;;9.32;;
35745;SDS011;21870;42.812;74.628;2023-02-07T14:43:24;26.23;;;9.95;;
35745;SDS011;21870;42.812;74.628;2023-02-07T14:51:18;21.40;;;9.73;;
35745;SDS011;21870;42.812;74.628;2023-02-07T15:02:35;10.80;;;8.82;;
35745;SDS011;21870;42.812;74.628;2023-02-07T15:07:47;12.40;;;9.48;;
35745;SDS011;21870;42.812;74.628;2023-02-07T15:10:25;11.20;;;8.35;;
35745;SDS011;21870;42.812;74.628;2023-02-07T15:12:52;12.02;;;9.95;;
35745;SDS011;21870;42.812;74.628;2023-02-07T15:15:23;10.70;;;8.23;;
35745;SDS011;21870;42.812;74.628;2023-02-07T15:17:56;16.65;;;9.98;;
35745;SDS011;21870;42.812;74.628;2023-02-07T15:20:31;15.68;;;10.05;;
35745;SDS011;21870;42.812;74.628;2023-02-07T15:22:59;14.43;;;10.20;;
35745;SDS011;21870;42.812;74.628;2023-02-07T15:25:27;21.10;;;11.38;;
35745;SDS011;21870;42.812;74.628;2023-02-07T15:28:16;25.65;;;11.27;;
35745;SDS011;21870;42.812;74.628;2023-02-07T15:33:52;27.90;;;16.83;;
35745;SDS011;21870;42.812;74.628;2023-02-07T15:36:38;29.77;;;14.65;;
35745;SDS011;21870;42.812;74.628;2023-02-07T15:39:28;31.60;;;16.80;;
35745;SDS011;21870;42.812;74.628;2023-02-07T15:41:54;34.92;;;15.57;;
35745;SDS011;21870;42.812;74.628;2023-02-07T15:44:23;34.33;;;17.63;;
35745;SDS011;21870;42.812;74.628;2023-02-07T15:49:32;24.27;;;15.48;;
35745;SDS011;21870;42.812;74.628;2023-02-07T15:54:58;25.30;;;14.63;;
35745;SDS011;21870;42.812;74.628;2023-02-07T15:57:49;23.15;;;13.75;;
35745;SDS011;21870;42.812;74.628;2023-02-07T16:00:16;21.92;;;13.40;;
35745;SDS011;21870;42.812;74.628;2023-02-07T16:08:24;20.25;;;12.63;;
35745;SDS011;21870;42.812;74.628;2023-02-07T16:11:41;21.10;;;13.10;;
35745;SDS011;21870;42.812;74.628;2023-02-07T16:16:20;28.45;;;15.32;;
35745;SDS011;21870;42.812;74.628;2023-02-07T16:18:51;26.00;;;15.75;;
35745;SDS011;21870;42.812;74.628;2023-02-07T16:21:28;18.70;;;14.50;;
35745;SDS011;21870;42.812;74.628;2023-02-07T16:23:59;20.55;;;13.73;;
35745;SDS011;21870;42.812;74.628;2023-02-07T16:26:33;16.50;;;12.60;;
35745;SDS011;21870;42.812;74.628;2023-02-07T16:29:03;19.88;;;12.32;;
35745;SDS011;21870;42.812;74.628;2023-02-07T16:31:33;19.30;;;12.38;;
35745;SDS011;21870;42.812;74.628;2023-02-07T16:33:59;19.40;;;12.48;;
35745;SDS011;21870;42.812;74.628;2023-02-07T16:36:25;17.48;;;12.90;;
35745;SDS011;21870;42.812;74.628;2023-02-07T16:38:53;14.52;;;11.82;;
35745;SDS011;21870;42.812;74.628;2023-02-07T16:44:01;22.05;;;15.63;;
35745;SDS011;21870;42.812;74.628;2023-02-07T16:46:32;18.65;;;14.23;;
35745;SDS011;21870;42.812;74.628;2023-02-07T16:48:58;25.08;;;16.50;;
35745;SDS011;21870;42.812;74.628;2023-02-07T16:51:27;24.60;;;16.70;;
35745;SDS011;21870;42.812;74.628;2023-02-07T16:53:53;29.85;;;16.65;;
35745;SDS011;21870;42.812;74.628;2023-02-07T16:56:22;19.70;;;14.52;;
35745;SDS011;21870;42.812;74.628;2023-02-07T16:58:51;21.55;;;16.35;;
35745;SDS011;21870;42.812;74.628;2023-02-07T17:01:18;20.10;;;16.15;;
35745;SDS011;21870;42.812;74.628;2023-02-07T17:03:45;21.55;;;16.27;;
35745;SDS011;21870;42.812;74.628;2023-02-07T17:06:12;18.65;;;13.57;;
35745;SDS011;21870;42.812;74.628;2023-02-07T17:08:40;21.50;;;14.85;;
35745;SDS011;21870;42.812;74.628;2023-02-07T17:11:06;18.20;;;13.77;;
35745;SDS011;21870;42.812;74.628;2023-02-07T17:13:37;19.80;;;13.98;;
35745;SDS011;21870;42.812;74.628;2023-02-07T17:16:03;22.63;;;15.07;;
35745;SDS011;21870;42.812;74.628;2023-02-07T17:18:29;25.85;;;16.48;;
35745;SDS011;21870;42.812;74.628;2023-02-07T17:20:55;25.35;;;16.42;;
35745;SDS011;21870;42.812;74.628;2023-02-07T17:23:21;23.60;;;16.83;;
35745;SDS011;21870;42.812;74.628;2023-02-07T17:25:49;24.45;;;16.50;;
35745;SDS011;21870;42.812;74.628;2023-02-07T17:28:15;18.63;;;14.70;;
35745;SDS011;21870;42.812;74.628;2023-02-07T17:30:42;21.30;;;13.02;;
35745;SDS011;21870;42.812;74.628;2023-02-07T17:33:08;20.52;;;13.38;;